sensor_id;sensor_type;location;lat;lon;timestamp;pressure;altitude;pressure_sealevel;temperature;humidity
32320;BME280;19080;51.750;5.888;2023-05-29T00:00:48;102062.75;;;11.79;100.00
32320;BME280;19080;51.750;5.888;2023-05-29T00:03:16;102082.38;;;11.82;100.00
32320;BME280;19080;51.750;5.888;2023-05-29T00:05:45;102097.66;;;11.89;100.00
32320;BME280;19080;51.750;5.888;2023-05-29T00:08:12;102002.72;;;11.30;100.00
32320;BME280;19080;51.750;5.888;2023-05-29T00:10:39;102105.19;;;11.76;100.00
32320;BME280;19080;51.750;5.888;2023-05-29T00:13:07;101898.44;;;10.52;100.00
32320;BME280;19080;51.750;5.888;2023-05-29T00:15:34;102091.28;;;11.56;100.00
32320;BME280;19080;51.750;5.888;2023-05-29T00:18:01;102089.38;;;11.52;100.00
32320;BME280;19080;51.750;5.888;2023-05-29T00:20:28;102088.38;;;11.48;100.00
32320;BME280;19080;51.750;5.888;2023-05-29T00:22:55;102076.25;;;11.29;100.00
32320;BME280;19080;51.750;5.888;2023-05-29T00:25:22;102121.44;;;11.56;100.00
32320;BME280;19080;51.750;5.888;2023-05-29T00:27:48;102021.13;;;10.95;100.00
32320;BME280;19080;51.750;5.888;2023-05-29T00:30:15;102104.22;;;11.45;100.00
32320;BME280;19080;51.750;5.888;2023-05-29T00:32:42;102102.13;;;11.35;100.00
32320;BME280;19080;51.750;5.888;2023-05-29T00:35:08;102128.41;;;11.53;100.00
32320;BME280;19080;51.750;5.888;2023-05-29T00:37:35;102099.19;;;11.26;100.00
32320;BME280;19080;51.750;5.888;2023-05-29T00:40:02;102117.97;;;11.32;100.00
32320;BME280;19080;51.750;5.888;2023-05-29T00:42:30;102098.03;;;11.18;100.00
32320;BME280;19080;51.750;5.888;2023-05-29T00:44:58;102115.88;;;11.22;100.00
32320;BME280;19080;51.750;5.888;2023-05-29T00:47:25;102105.94;;;11.16;100.00
32320;BME280;19080;51.750;5.888;2023-05-29T00:49:53;102104.09;;;11.14;100.00
32320;BME280;19080;51.750;5.888;2023-05-29T00:52:23;102104.53;;;11.00;100.00
32320;BME280;19080;51.750;5.888;2023-05-29T00:54:51;102109.91;;;11.02;100.00
32320;BME280;19080;51.750;5.888;2023-05-29T00:57:18;102043.63;;;10.54;100.00
32320;BME280;19080;51.750;5.888;2023-05-29T00:59:46;102119.31;;;10.92;100.00
32320;BME280;19080;51.750;5.888;2023-05-29T01:02:14;102152.34;;;11.00;100.00
32320;BME280;19080;51.750;5.888;2023-05-29T01:04:44;102058.44;;;10.48;100.00
32320;BME280;19080;51.750;5.888;2023-05-29T01:07:11;102093.91;;;10.75;100.00
32320;BME280;19080;51.750;5.888;2023-05-29T01:09:39;102121.34;;;10.74;100.00
32320;BME280;19080;51.750;5.888;2023-05-29T01:15:17;102128.22;;;10.69;100.00
32320;BME280;19080;51.750;5.888;2023-05-29T01:18:21;102125.41;;;10.64;100.00
32320;BME280;19080;51.750;5.888;2023-05-29T01:23:52;102142.13;;;10.62;100.00
32320;BME280;19080;51.750;5.888;2023-05-29T01:29:08;102123.16;;;10.51;100.00
32320;BME280;19080;51.750;5.888;2023-05-29T01:31:37;102027.34;;;9.94;100.00
32320;BME280;19080;51.750;5.888;2023-05-29T01:34:05;102143.44;;;10.49;100.00
32320;BME280;19080;51.750;5.888;2023-05-29T01:36:32;102140.13;;;10.55;100.00
32320;BME280;19080;51.750;5.888;2023-05-29T01:38:59;102166.03;;;10.62;100.00
32320;BME280;19080;51.750;5.888;2023-05-29T01:41:27;102168.75;;;10.63;100.00
32320;BME280;19080;51.750;5.888;2023-05-29T01:43:56;102163.06;;;10.53;100.00
32320;BME280;19080;51.750;5.888;2023-05-29T01:46:24;102132.13;;;10.29;100.00
32320;BME280;19080;51.750;5.888;2023-05-29T01:48:52;102159.31;;;10.48;100.00
32320;BME280;19080;51.750;5.888;2023-05-29T01:51:21;102127.78;;;10.31;100.00
32320;BME280;19080;51.750;5.888;2023-05-29T01:53:48;102110.69;;;10.23;100.00
32320;BME280;19080;51.750;5.888;2023-05-29T01:56:15;102126.94;;;10.32;100.00
32320;BME280;19080;51.750;5.888;2023-05-29T01:58:43;102158.53;;;10.50;100.00
32320;BME280;19080;51.750;5.888;2023-05-29T02:01:10;102149.56;;;10.47;100.00
32320;BME280;19080;51.750;5.888;2023-05-29T02:03:37;102155.59;;;10.42;100.00
32320;BME280;19080;51.750;5.888;2023-05-29T02:06:04;102123.84;;;10.20;100.00
32320;BME280;19080;51.750;5.888;2023-05-29T02:08:31;102148.53;;;10.43;100.00
32320;BME280;19080;51.750;5.888;2023-05-29T02:10:57;102118.59;;;10.22;100.00
32320;BME280;19080;51.750;5.888;2023-05-29T02:13:24;102151.06;;;10.38;100.00
32320;BME280;19080;51.750;5.888;2023-05-29T02:15:50;102125.75;;;10.24;100.00
32320;BME280;19080;51.750;5.888;2023-05-29T02:18:18;102106.69;;;10.12;100.00
32320;BME280;19080;51.750;5.888;2023-05-29T02:20:46;102043.59;;;9.79;100.00
32320;BME280;19080;51.750;5.888;2023-05-29T02:23:20;102134.78;;;10.29;100.00
32320;BME280;19080;51.750;5.888;2023-05-29T02:25:47;102128.41;;;10.24;100.00
32320;BME280;19080;51.750;5.888;2023-05-29T02:28:14;102128.28;;;10.21;100.00
32320;BME280;19080;51.750;5.888;2023-05-29T02:30:41;102146.03;;;10.22;100.00
32320;BME280;19080;51.750;5.888;2023-05-29T02:33:08;102131.41;;;10.11;100.00
32320;BME280;19080;51.750;5.888;2023-05-29T02:35:35;102141.19;;;10.12;100.00
32320;BME280;19080;51.750;5.888;2023-05-29T02:38:03;102161.00;;;10.20;100.00
32320;BME280;19080;51.750;5.888;2023-05-29T02:40:30;102143.59;;;10.06;100.00
32320;BME280;19080;51.750;5.888;2023-05-29T02:42:57;102155.25;;;10.09;100.00
32320;BME280;19080;51.750;5.888;2023-05-29T02:45:24;102149.75;;;10.05;100.00
32320;BME280;19080;51.750;5.888;2023-05-29T02:47:52;102117.22;;;9.87;100.00
32320;BME280;19080;51.750;5.888;2023-05-29T02:50:19;102142.41;;;9.98;100.00
32320;BME280;19080;51.750;5.888;2023-05-29T02:52:46;102145.84;;;9.95;100.00
32320;BME280;19080;51.750;5.888;2023-05-29T02:55:12;102144.22;;;9.99;100.00
32320;BME280;19080;51.750;5.888;2023-05-29T02:57:39;102153.94;;;9.98;100.00
32320;BME280;19080;51.750;5.888;2023-05-29T03:00:07;102143.25;;;9.97;100.00
32320;BME280;19080;51.750;5.888;2023-05-29T03:02:34;101998.81;;;9.19;100.00
32320;BME280;19080;51.750;5.888;2023-05-29T03:05:03;102165.72;;;10.06;100.00
32320;BME280;19080;51.750;5.888;2023-05-29T03:07:30;102140.47;;;9.94;100.00
32320;BME280;19080;51.750;5.888;2023-05-29T03:09:56;102125.97;;;9.84;100.00
32320;BME280;19080;51.750;5.888;2023-05-29T03:12:25;102145.78;;;9.94;100.00
32320;BME280;19080;51.750;5.888;2023-05-29T03:15:21;102167.19;;;9.98;100.00
32320;BME280;19080;51.750;5.888;2023-05-29T03:17:48;102140.19;;;9.86;100.00
32320;BME280;19080;51.750;5.888;2023-05-29T03:20:19;102077.72;;;9.48;100.00
32320;BME280;19080;51.750;5.888;2023-05-29T03:22:49;102137.25;;;9.78;100.00
32320;BME280;19080;51.750;5.888;2023-05-29T03:25:16;102058.56;;;9.33;100.00
32320;BME280;19080;51.750;5.888;2023-05-29T03:27:43;102161.94;;;9.77;100.00
32320;BME280;19080;51.750;5.888;2023-05-29T03:30:15;102135.72;;;9.63;100.00
32320;BME280;19080;51.750;5.888;2023-05-29T03:32:42;102162.78;;;9.76;100.00
32320;BME280;19080;51.750;5.888;2023-05-29T03:35:09;102059.75;;;9.19;100.00
32320;BME280;19080;51.750;5.888;2023-05-29T03:37:39;102159.91;;;9.70;100.00
32320;BME280;19080;51.750;5.888;2023-05-29T03:40:06;102157.19;;;9.69;100.00
32320;BME280;19080;51.750;5.888;2023-05-29T03:42:34;102128.50;;;9.59;100.00
32320;BME280;19080;51.750;5.888;2023-05-29T03:45:01;102186.66;;;9.76;100.00
32320;BME280;19080;51.750;5.888;2023-05-29T03:47:30;102171.47;;;9.72;100.00
32320;BME280;19080;51.750;5.888;2023-05-29T03:49:57;102167.13;;;9.74;100.00
32320;BME280;19080;51.750;5.888;2023-05-29T03:52:23;102168.94;;;9.75;100.00
32320;BME280;19080;51.750;5.888;2023-05-29T03:54:52;102154.47;;;9.67;100.00
32320;BME280;19080;51.750;5.888;2023-05-29T03:57:18;102144.34;;;9.57;100.00
32320;BME280;19080;51.750;5.888;2023-05-29T03:59:45;102165.19;;;9.70;100.00
32320;BME280;19080;51.750;5.888;2023-05-29T04:02:12;102195.69;;;9.82;100.00
32320;BME280;19080;51.750;5.888;2023-05-29T04:04:42;102175.31;;;9.81;100.00
32320;BME280;19080;51.750;5.888;2023-05-29T04:07:10;102157.44;;;9.75;100.00
32320;BME280;19080;51.750;5.888;2023-05-29T04:09:37;102204.97;;;9.93;100.00
32320;BME280;19080;51.750;5.888;2023-05-29T04:12:06;102173.47;;;9.78;100.00
32320;BME280;19080;51.750;5.888;2023-05-29T04:14:33;102196.06;;;9.91;100.00
32320;BME280;19080;51.750;5.888;2023-05-29T04:16:59;102182.63;;;9.86;100.00
32320;BME280;19080;51.750;5.888;2023-05-29T04:19:26;102195.16;;;9.90;100.00
32320;BME280;19080;51.750;5.888;2023-05-29T04:21:53;102105.06;;;9.47;100.00
32320;BME280;19080;51.750;5.888;2023-05-29T04:24:20;102169.47;;;9.89;100.00
32320;BME280;19080;51.750;5.888;2023-05-29T04:26:47;102185.56;;;9.94;100.00
32320;BME280;19080;51.750;5.888;2023-05-29T04:29:13;102197.88;;;10.14;100.00
32320;BME280;19080;51.750;5.888;2023-05-29T04:31:41;102193.28;;;10.10;100.00
32320;BME280;19080;51.750;5.888;2023-05-29T04:34:09;102184.47;;;10.11;100.00
32320;BME280;19080;51.750;5.888;2023-05-29T04:36:37;102197.94;;;10.16;100.00
32320;BME280;19080;51.750;5.888;2023-05-29T04:39:10;102187.25;;;10.14;100.00
32320;BME280;19080;51.750;5.888;2023-05-29T04:41:37;102171.94;;;10.07;100.00
32320;BME280;19080;51.750;5.888;2023-05-29T04:44:07;102201.44;;;10.37;100.00
32320;BME280;19080;51.750;5.888;2023-05-29T04:46:43;102178.78;;;10.23;100.00
32320;BME280;19080;51.750;5.888;2023-05-29T04:49:11;102228.47;;;10.51;100.00
32320;BME280;19080;51.750;5.888;2023-05-29T04:51:39;102119.50;;;10.00;100.00
32320;BME280;19080;51.750;5.888;2023-05-29T04:54:10;102117.63;;;9.97;100.00
32320;BME280;19080;51.750;5.888;2023-05-29T04:56:39;102199.31;;;10.52;100.00
32320;BME280;19080;51.750;5.888;2023-05-29T04:59:08;102143.22;;;10.19;100.00
32320;BME280;19080;51.750;5.888;2023-05-29T05:01:35;102213.22;;;10.69;100.00
32320;BME280;19080;51.750;5.888;2023-05-29T05:04:02;102220.50;;;10.74;100.00
32320;BME280;19080;51.750;5.888;2023-05-29T05:06:29;102189.72;;;10.56;100.00
32320;BME280;19080;51.750;5.888;2023-05-29T05:08:56;102146.25;;;10.28;100.00
32320;BME280;19080;51.750;5.888;2023-05-29T05:11:23;102238.41;;;10.80;100.00
32320;BME280;19080;51.750;5.888;2023-05-29T05:13:51;102254.13;;;10.74;100.00
32320;BME280;19080;51.750;5.888;2023-05-29T05:16:17;102248.19;;;10.81;100.00
32320;BME280;19080;51.750;5.888;2023-05-29T05:18:45;102254.13;;;10.74;100.00
32320;BME280;19080;51.750;5.888;2023-05-29T05:21:11;102241.56;;;10.70;100.00
32320;BME280;19080;51.750;5.888;2023-05-29T05:23:40;102257.84;;;10.79;100.00
32320;BME280;19080;51.750;5.888;2023-05-29T05:26:23;102245.75;;;10.87;100.00
32320;BME280;19080;51.750;5.888;2023-05-29T05:28:52;102202.59;;;10.69;100.00
32320;BME280;19080;51.750;5.888;2023-05-29T05:31:18;102274.16;;;11.14;100.00
32320;BME280;19080;51.750;5.888;2023-05-29T05:33:45;102258.75;;;11.29;100.00
32320;BME280;19080;51.750;5.888;2023-05-29T05:36:12;102243.13;;;11.38;100.00
32320;BME280;19080;51.750;5.888;2023-05-29T05:38:40;102226.94;;;11.57;100.00
32320;BME280;19080;51.750;5.888;2023-05-29T05:41:07;102244.59;;;11.81;100.00
32320;BME280;19080;51.750;5.888;2023-05-29T05:43:33;102265.06;;;12.10;100.00
32320;BME280;19080;51.750;5.888;2023-05-29T05:46:23;102178.66;;;11.99;100.00
32320;BME280;19080;51.750;5.888;2023-05-29T05:48:53;102186.31;;;12.18;100.00
32320;BME280;19080;51.750;5.888;2023-05-29T05:51:24;102233.88;;;12.66;100.00
32320;BME280;19080;51.750;5.888;2023-05-29T05:53:51;102182.50;;;12.70;100.00
32320;BME280;19080;51.750;5.888;2023-05-29T05:56:18;102274.75;;;13.28;100.00
32320;BME280;19080;51.750;5.888;2023-05-29T05:58:46;102234.41;;;13.16;100.00
32320;BME280;19080;51.750;5.888;2023-05-29T06:01:16;102266.22;;;13.41;100.00
32320;BME280;19080;51.750;5.888;2023-05-29T06:03:43;102240.41;;;13.40;100.00
32320;BME280;19080;51.750;5.888;2023-05-29T06:06:11;102260.72;;;13.70;100.00
32320;BME280;19080;51.750;5.888;2023-05-29T06:08:41;102226.88;;;13.67;100.00
32320;BME280;19080;51.750;5.888;2023-05-29T06:11:08;102268.78;;;14.09;100.00
32320;BME280;19080;51.750;5.888;2023-05-29T06:13:37;102250.25;;;14.16;100.00
32320;BME280;19080;51.750;5.888;2023-05-29T06:16:08;102241.09;;;14.43;100.00
32320;BME280;19080;51.750;5.888;2023-05-29T06:18:35;102270.16;;;14.68;100.00
32320;BME280;19080;51.750;5.888;2023-05-29T06:21:02;102275.53;;;14.70;100.00
32320;BME280;19080;51.750;5.888;2023-05-29T06:23:30;102187.50;;;14.37;100.00
32320;BME280;19080;51.750;5.888;2023-05-29T06:25:56;102282.28;;;14.94;100.00
32320;BME280;19080;51.750;5.888;2023-05-29T06:28:24;102283.75;;;15.24;100.00
32320;BME280;19080;51.750;5.888;2023-05-29T06:30:51;102274.91;;;15.28;100.00
32320;BME280;19080;51.750;5.888;2023-05-29T06:33:18;102268.97;;;15.44;100.00
32320;BME280;19080;51.750;5.888;2023-05-29T06:35:46;102268.47;;;15.67;100.00
32320;BME280;19080;51.750;5.888;2023-05-29T06:38:13;102251.59;;;15.71;96.89
32320;BME280;19080;51.750;5.888;2023-05-29T06:40:41;102286.19;;;15.57;99.92
32320;BME280;19080;51.750;5.888;2023-05-29T06:43:08;102271.03;;;15.57;97.65
32320;BME280;19080;51.750;5.888;2023-05-29T06:45:44;102192.00;;;15.28;98.49
32320;BME280;19080;51.750;5.888;2023-05-29T06:48:11;102256.50;;;15.98;98.66
32320;BME280;19080;51.750;5.888;2023-05-29T06:50:39;102300.03;;;16.42;93.14
32320;BME280;19080;51.750;5.888;2023-05-29T06:53:32;102218.19;;;16.03;87.53
32320;BME280;19080;51.750;5.888;2023-05-29T06:55:59;102291.13;;;16.43;88.23
32320;BME280;19080;51.750;5.888;2023-05-29T06:58:26;102282.28;;;16.50;85.51
32320;BME280;19080;51.750;5.888;2023-05-29T07:00:53;102298.44;;;16.54;85.14
32320;BME280;19080;51.750;5.888;2023-05-29T07:03:40;102292.88;;;17.06;81.34
32320;BME280;19080;51.750;5.888;2023-05-29T07:06:06;102283.16;;;17.17;80.39
32320;BME280;19080;51.750;5.888;2023-05-29T07:08:34;102276.16;;;17.34;76.94
32320;BME280;19080;51.750;5.888;2023-05-29T07:11:01;102286.03;;;17.38;77.96
32320;BME280;19080;51.750;5.888;2023-05-29T07:13:28;102209.69;;;17.04;74.33
32320;BME280;19080;51.750;5.888;2023-05-29T07:19:23;102292.16;;;17.22;77.32
32320;BME280;19080;51.750;5.888;2023-05-29T07:21:50;102277.91;;;17.28;80.82
32320;BME280;19080;51.750;5.888;2023-05-29T07:24:19;102289.72;;;17.49;75.37
32320;BME280;19080;51.750;5.888;2023-05-29T07:26:46;102297.22;;;17.81;74.28
32320;BME280;19080;51.750;5.888;2023-05-29T07:29:13;102300.78;;;17.80;72.07
32320;BME280;19080;51.750;5.888;2023-05-29T07:31:41;102302.59;;;17.82;72.89
32320;BME280;19080;51.750;5.888;2023-05-29T07:34:08;102294.72;;;18.02;71.85
32320;BME280;19080;51.750;5.888;2023-05-29T07:36:35;102152.09;;;17.72;67.24
32320;BME280;19080;51.750;5.888;2023-05-29T07:39:07;102298.63;;;18.48;66.23
32320;BME280;19080;51.750;5.888;2023-05-29T07:41:34;102302.34;;;18.67;64.44
32320;BME280;19080;51.750;5.888;2023-05-29T07:44:02;102263.59;;;18.38;62.88
32320;BME280;19080;51.750;5.888;2023-05-29T07:46:30;102302.19;;;18.47;63.61
32320;BME280;19080;51.750;5.888;2023-05-29T07:49:17;102287.69;;;18.21;64.84
32320;BME280;19080;51.750;5.888;2023-05-29T07:51:44;102308.25;;;18.17;63.59
32320;BME280;19080;51.750;5.888;2023-05-29T07:54:11;102231.75;;;17.67;65.30
32320;BME280;19080;51.750;5.888;2023-05-29T07:56:38;102311.09;;;18.37;62.32
32320;BME280;19080;51.750;5.888;2023-05-29T07:59:07;102312.06;;;18.51;63.37
32320;BME280;19080;51.750;5.888;2023-05-29T08:01:37;102317.63;;;18.77;61.67
32320;BME280;19080;51.750;5.888;2023-05-29T08:04:05;102308.63;;;18.69;60.80
32320;BME280;19080;51.750;5.888;2023-05-29T08:06:32;102324.88;;;18.89;58.93
32320;BME280;19080;51.750;5.888;2023-05-29T08:09:00;102308.66;;;18.74;56.65
32320;BME280;19080;51.750;5.888;2023-05-29T08:11:27;102326.44;;;18.55;57.19
32320;BME280;19080;51.750;5.888;2023-05-29T08:13:54;102329.22;;;18.66;59.29
32320;BME280;19080;51.750;5.888;2023-05-29T08:16:22;102315.91;;;18.89;58.11
32320;BME280;19080;51.750;5.888;2023-05-29T08:18:49;102248.56;;;18.72;57.44
32320;BME280;19080;51.750;5.888;2023-05-29T08:21:16;102325.81;;;18.99;57.03
32320;BME280;19080;51.750;5.888;2023-05-29T08:23:43;102304.22;;;18.88;57.12
32320;BME280;19080;51.750;5.888;2023-05-29T08:26:10;102321.38;;;19.25;56.14
32320;BME280;19080;51.750;5.888;2023-05-29T08:28:37;102311.56;;;19.48;54.19
32320;BME280;19080;51.750;5.888;2023-05-29T08:31:07;102326.88;;;19.65;53.79
32320;BME280;19080;51.750;5.888;2023-05-29T08:33:33;102316.13;;;19.65;54.21
32320;BME280;19080;51.750;5.888;2023-05-29T08:36:00;102252.31;;;19.39;54.70
32320;BME280;19080;51.750;5.888;2023-05-29T08:38:27;102294.56;;;20.10;53.26
32320;BME280;19080;51.750;5.888;2023-05-29T08:40:56;102311.59;;;20.60;51.91
32320;BME280;19080;51.750;5.888;2023-05-29T08:43:23;102326.84;;;20.71;50.64
32320;BME280;19080;51.750;5.888;2023-05-29T08:45:59;102273.81;;;20.60;49.69
32320;BME280;19080;51.750;5.888;2023-05-29T08:48:27;102277.47;;;20.30;48.74
32320;BME280;19080;51.750;5.888;2023-05-29T08:50:57;102328.69;;;20.50;50.60
32320;BME280;19080;51.750;5.888;2023-05-29T08:53:25;102324.19;;;20.59;51.97
32320;BME280;19080;51.750;5.888;2023-05-29T08:55:53;102263.97;;;20.42;50.73
32320;BME280;19080;51.750;5.888;2023-05-29T08:58:20;102329.44;;;20.96;50.16
32320;BME280;19080;51.750;5.888;2023-05-29T09:00:50;102345.56;;;21.09;49.19
32320;BME280;19080;51.750;5.888;2023-05-29T09:03:18;102339.38;;;20.85;49.91
32320;BME280;19080;51.750;5.888;2023-05-29T09:05:47;102267.56;;;20.38;49.89
32320;BME280;19080;51.750;5.888;2023-05-29T09:08:15;102255.00;;;20.28;50.32
32320;BME280;19080;51.750;5.888;2023-05-29T09:10:44;102334.81;;;21.00;51.02
32320;BME280;19080;51.750;5.888;2023-05-29T09:13:11;102340.09;;;21.29;48.66
32320;BME280;19080;51.750;5.888;2023-05-29T09:15:40;102335.69;;;21.07;48.93
32320;BME280;19080;51.750;5.888;2023-05-29T09:18:10;102271.81;;;21.01;50.13
32320;BME280;19080;51.750;5.888;2023-05-29T09:20:38;102249.19;;;21.19;47.74
32320;BME280;19080;51.750;5.888;2023-05-29T09:23:07;102333.59;;;21.64;47.47
32320;BME280;19080;51.750;5.888;2023-05-29T09:25:39;102311.97;;;21.64;48.00
32320;BME280;19080;51.750;5.888;2023-05-29T09:28:06;102324.59;;;21.65;46.83
32320;BME280;19080;51.750;5.888;2023-05-29T09:30:41;102322.69;;;21.76;47.27
32320;BME280;19080;51.750;5.888;2023-05-29T09:33:10;102258.22;;;21.17;46.09
32320;BME280;19080;51.750;5.888;2023-05-29T09:35:38;102324.47;;;21.80;45.59
32320;BME280;19080;51.750;5.888;2023-05-29T09:38:07;102266.19;;;21.42;46.83
32320;BME280;19080;51.750;5.888;2023-05-29T09:40:38;102267.13;;;21.35;46.43
32320;BME280;19080;51.750;5.888;2023-05-29T09:43:17;102312.72;;;21.86;46.43
32320;BME280;19080;51.750;5.888;2023-05-29T09:45:45;102266.97;;;21.57;46.47
32320;BME280;19080;51.750;5.888;2023-05-29T09:48:16;102336.09;;;21.93;45.51
32320;BME280;19080;51.750;5.888;2023-05-29T09:50:45;102320.84;;;21.81;45.51
32320;BME280;19080;51.750;5.888;2023-05-29T09:53:18;102271.38;;;21.71;44.74
32320;BME280;19080;51.750;5.888;2023-05-29T09:55:52;102307.16;;;22.01;44.39
32320;BME280;19080;51.750;5.888;2023-05-29T09:58:22;102306.97;;;22.27;44.95
32320;BME280;19080;51.750;5.888;2023-05-29T10:00:50;102255.81;;;21.99;43.73
32320;BME280;19080;51.750;5.888;2023-05-29T10:03:20;102303.00;;;22.57;43.90
32320;BME280;19080;51.750;5.888;2023-05-29T10:05:54;102213.09;;;22.35;43.32
32320;BME280;19080;51.750;5.888;2023-05-29T10:08:25;102240.00;;;22.49;42.47
32320;BME280;19080;51.750;5.888;2023-05-29T10:11:00;102291.03;;;22.78;42.39
32320;BME280;19080;51.750;5.888;2023-05-29T10:13:41;102325.88;;;23.10;43.36
32320;BME280;19080;51.750;5.888;2023-05-29T10:16:11;102205.44;;;22.67;42.64
32320;BME280;19080;51.750;5.888;2023-05-29T10:18:44;102141.41;;;22.63;41.96
32320;BME280;19080;51.750;5.888;2023-05-29T10:21:12;102294.25;;;23.73;41.16
32320;BME280;19080;51.750;5.888;2023-05-29T10:23:44;102279.09;;;23.60;42.94
32320;BME280;19080;51.750;5.888;2023-05-29T10:26:15;102240.13;;;23.67;40.39
32320;BME280;19080;51.750;5.888;2023-05-29T10:28:46;102310.16;;;23.94;40.75
32320;BME280;19080;51.750;5.888;2023-05-29T10:31:20;102313.06;;;23.84;39.92
32320;BME280;19080;51.750;5.888;2023-05-29T10:34:07;102311.38;;;23.75;40.47
32320;BME280;19080;51.750;5.888;2023-05-29T10:36:40;102295.63;;;23.42;40.47
32320;BME280;19080;51.750;5.888;2023-05-29T10:39:09;102284.56;;;23.57;41.12
32320;BME280;19080;51.750;5.888;2023-05-29T10:41:36;102304.81;;;23.90;41.98
32320;BME280;19080;51.750;5.888;2023-05-29T10:49:25;102293.81;;;23.99;40.06
32320;BME280;19080;51.750;5.888;2023-05-29T10:51:52;102290.41;;;23.86;39.29
32320;BME280;19080;51.750;5.888;2023-05-29T10:54:23;102281.00;;;23.52;40.26
32320;BME280;19080;51.750;5.888;2023-05-29T10:56:58;102226.34;;;23.22;39.92
32320;BME280;19080;51.750;5.888;2023-05-29T10:59:27;102278.94;;;23.69;40.37
32320;BME280;19080;51.750;5.888;2023-05-29T11:01:55;102301.00;;;24.01;40.55
32320;BME280;19080;51.750;5.888;2023-05-29T11:06:53;102284.63;;;24.08;39.29
32320;BME280;19080;51.750;5.888;2023-05-29T11:09:37;102299.66;;;24.27;39.57
32320;BME280;19080;51.750;5.888;2023-05-29T11:12:15;102301.09;;;24.46;38.99
32320;BME280;19080;51.750;5.888;2023-05-29T11:15:02;102280.78;;;24.65;38.99
32320;BME280;19080;51.750;5.888;2023-05-29T11:17:51;102293.34;;;24.71;38.62
32320;BME280;19080;51.750;5.888;2023-05-29T11:20:28;102235.94;;;24.46;38.33
32320;BME280;19080;51.750;5.888;2023-05-29T11:23:02;102283.09;;;24.85;37.74
32320;BME280;19080;51.750;5.888;2023-05-29T11:25:35;102255.09;;;24.82;38.40
32320;BME280;19080;51.750;5.888;2023-05-29T11:28:03;102236.28;;;25.14;37.26
32320;BME280;19080;51.750;5.888;2023-05-29T11:30:50;102263.47;;;25.14;37.94
32320;BME280;19080;51.750;5.888;2023-05-29T11:33:39;102270.28;;;25.34;37.24
32320;BME280;19080;51.750;5.888;2023-05-29T11:36:08;102268.66;;;25.25;37.24
32320;BME280;19080;51.750;5.888;2023-05-29T11:38:35;102251.16;;;25.75;36.24
32320;BME280;19080;51.750;5.888;2023-05-29T11:41:02;102287.06;;;25.89;36.80
32320;BME280;19080;51.750;5.888;2023-05-29T11:43:29;102254.75;;;25.76;36.09
32320;BME280;19080;51.750;5.888;2023-05-29T11:45:56;102256.13;;;25.93;35.87
32320;BME280;19080;51.750;5.888;2023-05-29T11:48:23;102268.19;;;26.16;34.40
32320;BME280;19080;51.750;5.888;2023-05-29T11:50:50;102264.06;;;26.35;34.77
32320;BME280;19080;51.750;5.888;2023-05-29T11:53:17;102233.16;;;26.36;34.34
32320;BME280;19080;51.750;5.888;2023-05-29T11:55:44;102266.97;;;26.60;34.46
32320;BME280;19080;51.750;5.888;2023-05-29T11:58:10;102276.03;;;26.91;34.16
32320;BME280;19080;51.750;5.888;2023-05-29T12:00:38;102263.44;;;26.87;34.21
32320;BME280;19080;51.750;5.888;2023-05-29T12:03:05;102252.34;;;26.64;34.01
32320;BME280;19080;51.750;5.888;2023-05-29T12:05:48;102270.06;;;26.79;34.46
32320;BME280;19080;51.750;5.888;2023-05-29T12:08:15;102270.00;;;26.15;33.70
32320;BME280;19080;51.750;5.888;2023-05-29T12:10:47;102263.97;;;25.70;34.51
32320;BME280;19080;51.750;5.888;2023-05-29T12:13:15;102250.06;;;25.82;35.03
32320;BME280;19080;51.750;5.888;2023-05-29T12:15:47;102221.56;;;25.61;34.54
32320;BME280;19080;51.750;5.888;2023-05-29T12:18:14;102263.75;;;25.79;35.50
32320;BME280;19080;51.750;5.888;2023-05-29T12:20:41;102205.16;;;25.66;35.25
32320;BME280;19080;51.750;5.888;2023-05-29T12:23:08;102228.50;;;25.75;34.78
32320;BME280;19080;51.750;5.888;2023-05-29T12:25:35;102279.25;;;25.76;33.88
32320;BME280;19080;51.750;5.888;2023-05-29T12:28:05;102249.75;;;25.57;33.71
32320;BME280;19080;51.750;5.888;2023-05-29T12:30:37;102153.72;;;25.20;33.19
32320;BME280;19080;51.750;5.888;2023-05-29T12:33:04;102265.44;;;25.83;33.35
32320;BME280;19080;51.750;5.888;2023-05-29T12:35:34;102266.25;;;25.50;33.63
32320;BME280;19080;51.750;5.888;2023-05-29T12:38:02;102269.13;;;25.05;33.91
32320;BME280;19080;51.750;5.888;2023-05-29T12:40:32;102271.97;;;24.54;34.30
32320;BME280;19080;51.750;5.888;2023-05-29T12:43:05;102195.09;;;24.52;34.37
32320;BME280;19080;51.750;5.888;2023-05-29T12:45:33;102265.03;;;24.83;33.77
32320;BME280;19080;51.750;5.888;2023-05-29T12:50:29;102231.38;;;24.90;32.44
32320;BME280;19080;51.750;5.888;2023-05-29T12:53:01;102203.53;;;24.80;33.10
32320;BME280;19080;51.750;5.888;2023-05-29T12:55:32;102267.56;;;25.34;32.96
32320;BME280;19080;51.750;5.888;2023-05-29T12:58:00;102249.53;;;25.68;32.66
32320;BME280;19080;51.750;5.888;2023-05-29T13:00:27;102258.00;;;25.91;31.26
32320;BME280;19080;51.750;5.888;2023-05-29T13:02:53;102238.16;;;25.86;31.69
32320;BME280;19080;51.750;5.888;2023-05-29T13:05:20;102253.25;;;26.32;31.56
32320;BME280;19080;51.750;5.888;2023-05-29T13:07:50;102264.78;;;26.73;31.60
32320;BME280;19080;51.750;5.888;2023-05-29T13:10:19;102256.56;;;27.05;31.75
32320;BME280;19080;51.750;5.888;2023-05-29T13:12:47;102238.97;;;26.86;31.15
32320;BME280;19080;51.750;5.888;2023-05-29T13:15:14;102198.00;;;26.59;31.95
32320;BME280;19080;51.750;5.888;2023-05-29T13:17:41;102196.13;;;26.62;31.82